EKOD/ODE METAR and TAF weather

Enter ICAO airport designator
Station Type Date Time Source
EKOD METAR 2020/03/28 13:50 UTC NOAA

EKOD 281350Z 01011KT 9999 FEW030 10/02 Q1021


Station Type Date Time Source
EKOD Decoded METAR 2020/03/28 13:50 UTC NOAA

Odense / Beldringe, Denmark (EKOD) 55-29N 010-20E 17M
Mar 28, 2020 - 09:50 AM EDT / 2020.03.28 1350 UTC
Wind: from the N (010 degrees) at 13 MPH (11 KT):0
Visibility: greater than 7 mile(s):0
Sky conditions: mostly clear
Temperature: 50 F (10 C)
Dew Point: 35 F (2 C)
Relative Humidity: 57%
Pressure (altimeter): 30.15 in. Hg (1021 hPa)
ob: EKOD 281350Z 01011KT 9999 FEW030 10/02 Q1021
cycle: 14

Station Type Date Time Source
EKOD TAF 2015/04/20 17:00 UTC NOAA

TAF
AMD EKOD 201701Z 2017/2018 CNL

Example: see airport list